Fortescue, Missouri
Current Conditions -  °F | °C
As of 10:53 AM on Sunday 21 Dec 2014 (Local Time) from KFNB Reporting Station
Overcast Overcast  
Wind Chill: 31°   Ceiling: 600
Heat Index: 40°   Visibility: 7mi
Dew Point: 37°   Wind: 17mph
Humidity: 89%   Direction: 180°S
Pressure: 29.91"   Gusts: NA
Location:  40.1428°N, 95.3614°W
Report Text: KFNB 211653Z AUTO 18015KT 7SM OVC006 04/03 A2991 RMK AO2 SLP133 T00440028
Loading
Personal Weather Stations






























Interactive Weather Map New forecast layout! Learn more

10-Day Weather Forecast

Advertisements
Track Severe Weather on mobile